Terminal Aerodrome Forecast
Issued by NWS Cleveland, OH

Home | Current Version | Previous Version | Graphics & Text | Print | Product List | Glossary Off
Versions: 1 2 3 4 5 6 7 8 9 10 11 12 13 14 15 16 17 18

000
FTUS41 KCLE 311700 RRA
TAFMFD
TAF
KMFD 311748Z 3118/0118 22010KT P6SM SCT250
     FM010000 22006KT P6SM SCT100 OVC250
     FM010800 VRB04KT 5SM -SN BKN035 OVC100
     FM011000 12006KT 1SM -SN OVC012
     FM011700 09010KT 3/4SM -SN OVC008=

USA.gov is the U.S. government's official web portal to all federal, state and local government web resources and services.